createdAt,value
2019-06-20T00:01:49.031Z,19.10
2019-06-20T00:04:17.700Z,13.00
2019-06-20T00:06:46.334Z,13.28
2019-06-20T00:09:15.238Z,12.18
2019-06-20T00:11:43.897Z,12.37
2019-06-20T00:14:12.548Z,15.90
2019-06-20T00:16:41.325Z,12.73
2019-06-20T00:19:09.952Z,15.23
2019-06-20T00:21:40.163Z,15.65
2019-06-20T00:24:08.871Z,14.93
2019-06-20T00:26:37.440Z,14.65
2019-06-20T00:29:06.539Z,17.52
2019-06-20T00:31:35.183Z,14.10
2019-06-20T00:34:03.860Z,16.25
2019-06-20T00:36:33.531Z,14.13
2019-06-20T00:39:02.186Z,14.93
2019-06-20T00:41:30.797Z,13.98
2019-06-20T00:43:59.408Z,17.77
2019-06-20T00:46:28.033Z,15.95
2019-06-20T00:48:56.625Z,17.65
2019-06-20T00:51:25.345Z,12.33
2019-06-20T00:53:54.080Z,12.33
2019-06-20T00:56:22.737Z,11.78
2019-06-20T00:58:51.460Z,11.22
2019-06-20T01:01:20.204Z,12.43
2019-06-20T01:03:48.817Z,13.08
2019-06-20T01:06:17.498Z,13.80
2019-06-20T01:08:46.184Z,14.15
2019-06-20T01:11:14.760Z,11.22
2019-06-20T01:13:43.352Z,14.10
2019-06-20T01:16:12.031Z,16.57
2019-06-20T01:18:40.611Z,14.75
2019-06-20T01:21:09.378Z,10.20
2019-06-20T01:23:37.989Z,13.48
2019-06-20T01:26:13.337Z,12.95
2019-06-20T01:28:41.947Z,15.55
2019-06-20T01:31:10.701Z,13.78
2019-06-20T01:33:39.674Z,18.52
2019-06-20T01:36:08.443Z,16.87
2019-06-20T01:38:37.205Z,18.52
2019-06-20T01:41:06.425Z,17.57
2019-06-20T01:43:49.488Z,19.40
2019-06-20T01:46:05.558Z,24.70
2019-06-20T01:48:34.209Z,19.50
2019-06-20T01:51:02.980Z,19.85
2019-06-20T01:53:31.576Z,29.05
2019-06-20T01:56:00.257Z,21.57
2019-06-20T01:58:29.018Z,31.55
2019-06-20T02:00:57.759Z,29.98
2019-06-20T02:03:26.496Z,33.92
2019-06-20T02:05:55.079Z,33.65
2019-06-20T02:08:23.693Z,40.65
2019-06-20T02:10:52.323Z,31.15
2019-06-20T02:13:21.132Z,41.18
2019-06-20T02:15:49.865Z,42.98
2019-06-20T02:18:18.436Z,45.12
2019-06-20T02:20:56.176Z,40.23
2019-06-20T02:23:24.905Z,56.77
2019-06-20T02:25:53.866Z,63.05
2019-06-20T02:28:23.104Z,63.87
2019-06-20T02:30:51.875Z,63.65
2019-06-20T02:33:20.635Z,68.42
2019-06-20T02:35:49.293Z,59.65
2019-06-20T02:38:18.037Z,68.25
2019-06-20T02:40:46.727Z,76.05
2019-06-20T02:43:15.458Z,69.03
2019-06-20T02:45:44.040Z,73.62
2019-06-20T02:48:12.745Z,73.92
2019-06-20T02:50:41.482Z,72.97
2019-06-20T02:53:10.198Z,76.37
2019-06-20T02:55:38.950Z,77.12
2019-06-20T02:58:07.993Z,78.22
2019-06-20T03:00:57.176Z,84.47
2019-06-20T03:03:27.585Z,87.05
2019-06-20T03:05:56.835Z,87.97
2019-06-20T03:08:25.501Z,84.83
2019-06-20T03:11:00.950Z,83.33
2019-06-20T03:13:30.138Z,83.20
2019-06-20T03:15:58.771Z,80.38
2019-06-20T03:18:27.493Z,77.55
2019-06-20T03:20:56.521Z,80.10
2019-06-20T03:23:25.223Z,89.55
2019-06-20T03:25:53.876Z,97.62
2019-06-20T03:28:22.568Z,88.42
2019-06-20T03:30:51.342Z,85.55
2019-06-20T03:33:20.104Z,91.67
2019-06-20T03:35:48.880Z,85.77
2019-06-20T03:38:17.474Z,80.62
2019-06-20T03:40:46.089Z,91.20
2019-06-20T03:43:14.758Z,89.42
2019-06-20T03:45:43.458Z,89.00
2019-06-20T03:48:12.090Z,79.42
2019-06-20T03:50:40.852Z,92.12
2019-06-20T03:53:09.513Z,90.75
2019-06-20T03:55:38.676Z,89.72
2019-06-20T03:58:07.714Z,83.82
2019-06-20T04:00:36.881Z,79.65
2019-06-20T04:03:05.930Z,88.78
2019-06-20T04:05:35.273Z,100.00
2019-06-20T04:08:04.087Z,83.15
2019-06-20T04:10:33.008Z,89.92
2019-06-20T04:13:01.707Z,82.82
2019-06-20T04:15:30.293Z,86.08
2019-06-20T04:17:58.902Z,88.62
2019-06-20T04:20:27.502Z,89.77
2019-06-20T04:22:56.157Z,77.45
2019-06-20T04:25:25.162Z,80.83
2019-06-20T04:27:53.868Z,74.87
2019-06-20T04:30:22.696Z,87.20
2019-06-20T04:32:51.392Z,78.50
2019-06-20T04:35:20.023Z,69.58
2019-06-20T04:37:48.896Z,67.40
2019-06-20T04:40:18.079Z,66.33
2019-06-20T04:42:46.688Z,70.65
2019-06-20T04:45:35.421Z,62.80
2019-06-20T04:48:04.433Z,77.00
2019-06-20T04:50:33.123Z,60.28
2019-06-20T04:53:01.761Z,62.13
2019-06-20T04:55:30.426Z,71.95
2019-06-20T04:57:59.038Z,73.55
2019-06-20T05:00:27.786Z,81.85
2019-06-20T05:02:56.413Z,83.92
2019-06-20T05:05:25.083Z,92.33
2019-06-20T05:07:53.742Z,94.95
2019-06-20T05:10:22.431Z,97.62
2019-06-20T05:12:51.089Z,98.95
2019-06-20T05:15:19.770Z,97.70
2019-06-20T05:17:51.482Z,108.45
2019-06-20T05:22:48.175Z,107.83
2019-06-20T05:25:16.852Z,115.17
2019-06-20T05:27:45.451Z,112.37
2019-06-20T05:30:14.344Z,108.85
2019-06-20T05:32:42.903Z,98.87
2019-06-20T05:35:11.757Z,97.30
2019-06-20T05:37:40.438Z,92.45
2019-06-20T05:40:09.593Z,104.00
2019-06-20T05:42:38.284Z,98.80
2019-06-20T05:45:07.920Z,103.42
2019-06-20T05:47:36.634Z,91.60
2019-06-20T05:50:09.172Z,100.53
2019-06-20T05:52:38.186Z,106.03
2019-06-20T05:55:09.924Z,98.33
2019-06-20T06:00:08.596Z,114.67
2019-06-20T06:02:37.592Z,86.70
2019-06-20T06:05:06.905Z,93.25
2019-06-20T06:07:35.611Z,78.55
2019-06-20T06:10:06.558Z,82.92
2019-06-20T06:12:36.355Z,79.47
2019-06-20T06:15:08.681Z,82.57
2019-06-20T06:17:37.539Z,83.42
2019-06-20T06:20:07.887Z,78.07
2019-06-20T06:22:36.732Z,70.55
2019-06-20T06:25:06.405Z,76.12
2019-06-20T06:27:35.142Z,61.18
2019-06-20T06:30:09.685Z,56.75
2019-06-20T06:32:40.399Z,66.62
2019-06-20T06:35:09.533Z,68.10
2019-06-20T06:37:38.750Z,61.15
2019-06-20T06:40:09.450Z,66.42
2019-06-20T06:42:38.185Z,65.70
2019-06-20T06:45:12.195Z,77.87
2019-06-20T06:47:40.951Z,78.52
2019-06-20T06:50:10.315Z,64.58
2019-06-20T06:52:38.974Z,57.85
2019-06-20T06:55:08.033Z,58.13
2019-06-20T06:57:36.780Z,58.40
2019-06-20T07:00:08.483Z,57.48
2019-06-20T07:05:06.660Z,64.75
2019-06-20T07:07:35.378Z,49.30
2019-06-20T07:10:06.227Z,45.63
2019-06-20T07:12:35.005Z,46.53
2019-06-20T07:15:08.557Z,41.80
2019-06-20T07:17:37.308Z,36.00
2019-06-20T07:20:09.124Z,47.60
2019-06-20T07:25:07.446Z,53.45
2019-06-20T07:27:36.370Z,50.05
2019-06-20T07:30:08.302Z,49.35
2019-06-20T07:32:36.903Z,59.42
2019-06-20T07:35:09.882Z,55.25
2019-06-20T07:37:38.485Z,53.00
2019-06-20T07:40:08.371Z,44.48
2019-06-20T07:42:37.243Z,45.85
2019-06-20T07:45:08.296Z,54.18
2019-06-20T07:47:37.031Z,40.05
2019-06-20T07:50:10.288Z,48.87
2019-06-20T07:52:38.982Z,47.13
2019-06-20T07:55:08.146Z,48.35
2019-06-20T07:57:37.227Z,42.53
2019-06-20T08:00:11.463Z,42.95
2019-06-20T08:02:40.266Z,38.33
2019-06-20T08:05:09.363Z,35.50
2019-06-20T08:07:38.119Z,84.90
2019-06-20T08:10:09.537Z,42.80
2019-06-20T08:12:38.145Z,44.65
2019-06-20T08:15:15.465Z,41.28
2019-06-20T08:17:41.707Z,36.13
2019-06-20T08:20:11.977Z,42.50
2019-06-20T08:22:41.015Z,37.63
2019-06-20T08:25:10.166Z,40.65
2019-06-20T08:27:51.556Z,34.53
2019-06-20T08:30:25.900Z,31.85
2019-06-20T08:32:56.117Z,30.65
2019-06-20T08:35:28.182Z,34.38
2019-06-20T08:37:58.971Z,24.70
2019-06-20T08:40:29.212Z,20.07
2019-06-20T08:42:58.865Z,18.32
2019-06-20T08:45:30.839Z,16.35
2019-06-20T08:48:00.079Z,22.20
2019-06-20T08:50:29.013Z,19.02
2019-06-20T08:52:57.981Z,19.15
2019-06-20T08:55:27.753Z,20.70
2019-06-20T08:57:57.605Z,23.00
2019-06-20T09:00:28.683Z,20.85
2019-06-20T09:02:58.629Z,21.60
2019-06-20T09:05:30.532Z,30.48
2019-06-20T09:10:40.904Z,14.85
2019-06-20T09:13:10.841Z,20.25
2019-06-20T09:15:40.630Z,13.38
2019-06-20T09:18:10.158Z,17.17
2019-06-20T09:20:39.032Z,9.60
2019-06-20T09:23:07.730Z,11.15
2019-06-20T09:25:36.906Z,16.67
2019-06-20T09:28:07.148Z,12.93
2019-06-20T09:30:36.831Z,12.25
2019-06-20T09:33:06.907Z,12.60
2019-06-20T09:35:35.981Z,12.95
2019-06-20T09:38:04.891Z,9.25
2019-06-20T09:40:33.837Z,9.55
2019-06-20T09:43:02.915Z,10.82
2019-06-20T09:45:31.894Z,8.10
2019-06-20T09:48:00.658Z,6.03
2019-06-20T09:50:29.440Z,6.92
2019-06-20T09:52:58.418Z,8.13
2019-06-20T09:55:27.210Z,6.35
2019-06-20T09:57:56.012Z,5.85
2019-06-20T10:00:26.753Z,5.92
2019-06-20T10:02:56.298Z,6.87
2019-06-20T10:05:26.068Z,6.67
2019-06-20T10:07:54.690Z,7.42
2019-06-20T10:10:28.859Z,7.60
2019-06-20T10:12:58.710Z,7.87
2019-06-20T10:15:32.638Z,8.85
2019-06-20T10:18:01.368Z,8.60
2019-06-20T10:20:30.168Z,9.50
2019-06-20T10:22:58.790Z,7.72
2019-06-20T10:25:27.592Z,10.98
2019-06-20T10:27:57.702Z,8.05
2019-06-20T10:30:27.368Z,10.60
2019-06-20T10:32:57.560Z,9.90
2019-06-20T10:35:26.806Z,11.48
2019-06-20T10:37:56.939Z,8.85
2019-06-20T10:40:25.843Z,8.53
2019-06-20T10:42:54.581Z,11.55
2019-06-20T10:45:25.179Z,8.38
2019-06-20T10:47:54.817Z,10.68
2019-06-20T10:50:24.292Z,7.80
2019-06-20T10:52:53.909Z,7.40
2019-06-20T10:55:22.859Z,9.00
2019-06-20T10:57:51.934Z,6.50
2019-06-20T11:00:30.881Z,13.78
2019-06-20T11:02:51.641Z,7.37
2019-06-20T11:05:21.211Z,10.05
2019-06-20T11:07:50.372Z,9.23
2019-06-20T11:10:19.685Z,8.83
2019-06-20T11:12:55.058Z,9.68
2019-06-20T11:15:20.158Z,6.12
2019-06-20T11:17:48.830Z,6.60
2019-06-20T11:20:18.181Z,14.45
2019-06-20T11:22:47.862Z,9.48
2019-06-20T11:25:19.296Z,6.33
2019-06-20T11:30:25.003Z,9.73
2019-06-20T11:32:53.676Z,8.30
2019-06-20T11:35:22.274Z,12.13
2019-06-20T11:37:50.999Z,9.90
2019-06-20T11:40:20.089Z,7.28
2019-06-20T11:42:48.743Z,7.83
2019-06-20T11:45:18.128Z,10.90
2019-06-20T11:47:47.383Z,9.95
2019-06-20T11:50:18.068Z,7.17
2019-06-20T11:52:46.712Z,10.55
2019-06-20T11:55:16.679Z,13.45
2019-06-20T11:57:45.402Z,11.57
2019-06-20T12:00:14.954Z,10.48
2019-06-20T12:02:44.178Z,16.57
2019-06-20T12:05:13.706Z,11.22
2019-06-20T12:07:43.645Z,13.78
2019-06-20T12:10:13.558Z,17.37
2019-06-20T12:12:42.560Z,22.35
2019-06-20T12:15:12.116Z,19.75
2019-06-20T12:17:41.743Z,19.02
2019-06-20T12:20:11.791Z,14.25
2019-06-20T12:22:41.711Z,12.18
2019-06-20T12:25:11.571Z,10.72
2019-06-20T12:27:40.844Z,11.15
2019-06-20T12:30:13.673Z,17.73
2019-06-20T12:32:42.533Z,107.95
2019-06-20T12:35:13.304Z,31.87
2019-06-20T12:37:42.756Z,17.05
2019-06-20T12:40:12.122Z,20.00
2019-06-20T12:42:41.785Z,16.23
2019-06-20T12:45:14.400Z,15.95
2019-06-20T12:47:43.816Z,16.65
2019-06-20T12:50:13.182Z,14.53
2019-06-20T12:52:43.414Z,16.07
2019-06-20T12:55:13.016Z,16.00
2019-06-20T12:57:42.245Z,15.75
2019-06-20T13:00:13.171Z,14.75
2019-06-20T13:02:43.364Z,13.22
2019-06-20T13:05:12.537Z,12.10
2019-06-20T13:07:42.398Z,11.90
2019-06-20T13:10:12.290Z,15.55
2019-06-20T13:12:48.806Z,13.58
2019-06-20T13:15:17.826Z,12.53
2019-06-20T13:17:47.084Z,10.25
2019-06-20T13:20:16.193Z,12.58
2019-06-20T13:22:44.929Z,14.83
2019-06-20T13:25:13.854Z,13.03
2019-06-20T13:27:43.466Z,15.10
2019-06-20T13:30:14.272Z,12.55
2019-06-20T13:32:43.835Z,19.40
2019-06-20T13:35:15.116Z,11.63
2019-06-20T13:37:45.774Z,17.65
2019-06-20T13:40:15.713Z,13.05
2019-06-20T13:42:45.974Z,12.50
2019-06-20T13:45:21.197Z,8.85
2019-06-20T13:47:50.076Z,14.90
2019-06-20T13:50:20.555Z,9.18
2019-06-20T13:52:51.059Z,10.05
2019-06-20T13:55:26.160Z,12.88
2019-06-20T13:57:55.311Z,16.40
2019-06-20T14:00:25.146Z,55.38
2019-06-20T14:02:54.230Z,11.05
2019-06-20T14:05:23.040Z,13.50
2019-06-20T14:07:54.323Z,15.08
2019-06-20T14:10:22.579Z,10.70
2019-06-20T14:12:51.840Z,11.97
2019-06-20T14:15:20.970Z,11.22
2019-06-20T14:17:49.970Z,10.30
2019-06-20T14:20:20.563Z,8.08
2019-06-20T14:22:49.680Z,7.58
2019-06-20T14:25:21.710Z,8.28
2019-06-20T14:30:20.994Z,10.15
2019-06-20T14:32:50.011Z,7.65
2019-06-20T14:35:22.482Z,8.03
2019-06-20T14:37:51.766Z,6.35
2019-06-20T14:40:21.135Z,6.55
2019-06-20T14:42:50.437Z,6.67
2019-06-20T14:45:19.519Z,6.95
2019-06-20T14:47:48.363Z,5.75
2019-06-20T14:50:17.302Z,6.80
2019-06-20T14:52:47.704Z,4.87
2019-06-20T14:55:16.576Z,6.22
2019-06-20T14:57:46.601Z,5.78
2019-06-20T15:00:17.446Z,5.85
2019-06-20T15:02:51.741Z,7.17
2019-06-20T15:05:19.657Z,9.13
2019-06-20T15:07:49.666Z,7.08
2019-06-20T15:10:19.007Z,9.35
2019-06-20T15:12:49.464Z,7.75
2019-06-20T15:15:20.750Z,7.50
2019-06-20T15:17:51.782Z,4.97
2019-06-20T15:20:19.916Z,6.00
2019-06-20T15:22:50.687Z,4.80
2019-06-20T15:25:19.669Z,5.83
2019-06-20T15:27:51.104Z,3.92
2019-06-20T15:30:19.550Z,4.37
2019-06-20T15:33:00.979Z,5.55
2019-06-20T15:35:19.095Z,4.83
2019-06-20T15:37:48.473Z,4.95
2019-06-20T15:40:18.103Z,4.45
2019-06-20T15:42:47.092Z,6.10
2019-06-20T15:45:17.882Z,5.12
2019-06-20T15:47:46.630Z,4.65
2019-06-20T15:50:15.699Z,5.12
2019-06-20T15:52:44.384Z,5.05
2019-06-20T15:55:13.154Z,5.62
2019-06-20T15:57:41.820Z,5.92
2019-06-20T16:00:12.611Z,3.75
2019-06-20T16:02:41.291Z,3.17
2019-06-20T16:05:10.654Z,3.12
2019-06-20T16:07:39.384Z,4.58
2019-06-20T16:10:09.813Z,4.12
2019-06-20T16:12:38.769Z,3.75
2019-06-20T16:15:09.861Z,5.25
2019-06-20T16:17:38.563Z,6.33
2019-06-20T16:20:07.921Z,3.72
2019-06-20T16:22:36.656Z,6.03
2019-06-20T16:25:06.706Z,5.85
2019-06-20T16:27:35.475Z,3.50
2019-06-20T16:30:08.564Z,4.37
2019-06-20T16:32:37.290Z,5.20
2019-06-20T16:35:07.294Z,3.45
2019-06-20T16:37:36.248Z,3.55
2019-06-20T16:40:08.958Z,7.08
2019-06-20T16:42:37.716Z,4.55
2019-06-20T16:45:08.237Z,4.75
2019-06-20T16:47:37.143Z,7.12
2019-06-20T16:50:07.874Z,5.55
2019-06-20T16:52:36.554Z,7.33
2019-06-20T16:55:07.219Z,3.20
2019-06-20T16:57:35.895Z,17.23
2019-06-20T17:00:09.456Z,56.28
2019-06-20T17:02:38.037Z,9.05
2019-06-20T17:05:09.974Z,7.67
2019-06-20T17:07:38.657Z,4.28
2019-06-20T17:10:07.844Z,7.45
2019-06-20T17:12:36.580Z,3.30
2019-06-20T17:15:06.645Z,4.17
2019-06-20T17:17:35.369Z,3.75
2019-06-20T17:20:06.528Z,3.58
2019-06-20T17:22:35.196Z,3.87
2019-06-20T17:25:05.747Z,3.70
2019-06-20T17:27:34.395Z,3.22
2019-06-20T17:30:03.901Z,2.55
2019-06-20T17:32:32.565Z,3.12
2019-06-20T17:35:01.221Z,3.92
2019-06-20T17:37:29.826Z,5.53
2019-06-20T17:39:58.428Z,3.77
2019-06-20T17:42:27.140Z,6.47
2019-06-20T17:44:55.796Z,3.02
2019-06-20T17:47:24.440Z,2.52
2019-06-20T17:49:53.028Z,3.17
2019-06-20T17:52:21.722Z,5.33
2019-06-20T17:54:50.321Z,2.90
2019-06-20T17:57:19.023Z,5.92
2019-06-20T17:59:47.671Z,77.50
2019-06-20T18:02:16.380Z,9.55
2019-06-20T18:04:44.951Z,2.60
2019-06-20T18:07:13.636Z,2.98
2019-06-20T18:09:42.335Z,3.30
2019-06-20T18:12:10.938Z,2.60
2019-06-20T18:14:39.583Z,2.85
2019-06-20T18:17:08.718Z,5.17
2019-06-20T18:19:37.439Z,3.22
2019-06-20T18:22:06.177Z,3.90
2019-06-20T18:24:34.748Z,4.97
2019-06-20T18:27:03.422Z,5.87
2019-06-20T18:29:32.175Z,4.78
2019-06-20T18:32:00.837Z,6.83
2019-06-20T18:34:30.582Z,3.15
2019-06-20T18:36:59.479Z,4.37
2019-06-20T18:39:28.095Z,3.87
2019-06-20T18:41:56.703Z,6.80
2019-06-20T18:44:25.854Z,3.52
2019-06-20T18:46:54.482Z,5.70
2019-06-20T18:49:23.151Z,4.50
2019-06-20T18:51:51.764Z,7.80
2019-06-20T18:54:20.593Z,8.03
2019-06-20T18:56:49.391Z,10.98
2019-06-20T18:59:18.021Z,12.63
2019-06-20T19:01:47.163Z,7.22
2019-06-20T19:04:15.831Z,9.75
2019-06-20T19:06:44.525Z,5.95
2019-06-20T19:09:13.129Z,7.35
2019-06-20T19:11:42.201Z,5.72
2019-06-20T19:14:12.706Z,5.87
2019-06-20T19:16:41.608Z,7.78
2019-06-20T19:19:10.517Z,6.35
2019-06-20T19:21:39.406Z,7.15
2019-06-20T19:24:08.483Z,8.60
2019-06-20T19:26:37.099Z,7.47
2019-06-20T19:29:05.845Z,5.37
2019-06-20T19:31:34.656Z,5.40
2019-06-20T19:34:04.417Z,5.75
2019-06-20T19:36:33.114Z,7.22
2019-06-20T19:39:01.879Z,11.80
2019-06-20T19:41:30.651Z,6.28
2019-06-20T19:43:59.671Z,13.22
2019-06-20T19:46:28.449Z,10.72
2019-06-20T19:48:57.214Z,7.03
2019-06-20T19:51:25.889Z,12.58
2019-06-20T19:53:54.640Z,11.00
2019-06-20T19:56:25.440Z,7.33
2019-06-20T19:58:54.238Z,9.10
2019-06-20T20:01:22.979Z,7.30
2019-06-20T20:03:54.246Z,9.38
2019-06-20T20:06:22.942Z,12.65
2019-06-20T20:08:51.702Z,12.58
2019-06-20T20:11:20.318Z,11.40
2019-06-20T20:13:48.942Z,19.85
2019-06-20T20:16:17.646Z,19.30
2019-06-20T20:18:46.250Z,217.03
2019-06-20T20:21:15.048Z,20.32
2019-06-20T20:23:43.707Z,15.13
2019-06-20T20:26:12.461Z,10.50
2019-06-20T20:28:41.081Z,12.28
2019-06-20T20:31:09.753Z,11.97
2019-06-20T20:33:38.372Z,14.58
2019-06-20T20:36:07.111Z,15.28
2019-06-20T20:38:35.711Z,11.50
2019-06-20T20:41:04.472Z,16.15
2019-06-20T20:43:33.066Z,10.65
2019-06-20T20:46:01.781Z,6.72
2019-06-20T20:48:30.509Z,10.68
2019-06-20T20:50:59.281Z,11.03
2019-06-20T20:53:27.888Z,12.93
2019-06-20T20:55:56.574Z,11.18
2019-06-20T20:58:25.257Z,8.68
2019-06-20T21:01:08.772Z,12.20
2019-06-20T21:03:37.479Z,14.47
2019-06-20T21:06:06.258Z,11.95
2019-06-20T21:08:34.885Z,9.45
2019-06-20T21:11:03.474Z,11.30
2019-06-20T21:13:32.102Z,10.35
2019-06-20T21:16:00.774Z,9.68
2019-06-20T21:18:29.812Z,7.95
2019-06-20T21:20:58.546Z,7.95
2019-06-20T21:23:27.173Z,10.38
2019-06-20T21:25:55.892Z,9.95
2019-06-20T21:28:24.578Z,7.50
2019-06-20T21:30:53.270Z,6.90
2019-06-20T21:33:21.961Z,9.05
2019-06-20T21:36:06.948Z,13.10
2019-06-20T21:38:20.972Z,8.40
2019-06-20T21:40:49.944Z,9.85
2019-06-20T21:43:20.212Z,10.50
2019-06-20T21:45:49.427Z,12.98
2019-06-20T21:48:18.719Z,27.10
2019-06-20T21:50:47.473Z,11.95
2019-06-20T21:53:16.214Z,11.03
2019-06-20T21:55:45.582Z,11.85
2019-06-20T21:58:14.274Z,18.20
2019-06-20T22:00:45.636Z,13.00
2019-06-20T22:03:14.458Z,22.07
2019-06-20T22:05:43.212Z,13.60
2019-06-20T22:08:12.012Z,13.45
2019-06-20T22:10:40.690Z,18.35
2019-06-20T22:13:09.449Z,12.50
2019-06-20T22:15:38.197Z,16.45
2019-06-20T22:18:06.986Z,16.48
2019-06-20T22:20:36.055Z,15.10
2019-06-20T22:23:05.352Z,18.52
2019-06-20T22:25:40.737Z,16.48
2019-06-20T22:28:09.504Z,20.48
2019-06-20T22:30:50.019Z,16.87
2019-06-20T22:33:18.632Z,18.85
2019-06-20T22:35:47.784Z,17.73
2019-06-20T22:38:16.481Z,20.80
2019-06-20T22:40:46.064Z,16.12
2019-06-20T22:43:14.765Z,13.85
2019-06-20T22:45:43.460Z,23.83
2019-06-20T22:48:12.270Z,10.38
2019-06-20T22:50:41.008Z,19.77
2019-06-20T22:53:09.773Z,17.62
2019-06-20T22:55:38.450Z,21.97
2019-06-20T22:58:07.206Z,17.32
2019-06-20T23:00:36.031Z,20.20
2019-06-20T23:03:05.649Z,20.92
2019-06-20T23:05:34.701Z,22.00
2019-06-20T23:08:03.598Z,19.77
2019-06-20T23:10:32.307Z,24.35
2019-06-20T23:13:00.977Z,23.87
2019-06-20T23:15:29.749Z,22.22
2019-06-20T23:17:58.404Z,25.05
2019-06-20T23:20:27.142Z,29.42
2019-06-20T23:22:55.895Z,23.90
2019-06-20T23:25:24.565Z,23.60
2019-06-20T23:27:53.315Z,27.00
2019-06-20T23:30:22.867Z,22.95
2019-06-20T23:32:51.474Z,30.90
2019-06-20T23:35:20.246Z,27.15
2019-06-20T23:37:48.987Z,27.50
2019-06-20T23:40:19.217Z,28.15
2019-06-20T23:42:47.837Z,26.52
2019-06-20T23:45:17.646Z,28.17
2019-06-20T23:47:46.418Z,29.12
2019-06-20T23:50:21.306Z,34.98
2019-06-20T23:52:55.918Z,30.17
2019-06-20T23:55:24.631Z,28.62
2019-06-20T23:57:53.288Z,30.00
